sensor_id;sensor_type;location;lat;lon;timestamp;pressure;altitude;pressure_sealevel;temperature;humidity
4024;BME280;2026;51.002;13.668;2023-02-12T00:01:22;100784.75;;;5.35;100.00
4024;BME280;2026;51.002;13.668;2023-02-12T00:06:26;100787.19;;;5.27;100.00
4024;BME280;2026;51.002;13.668;2023-02-12T00:11:29;100787.19;;;5.17;100.00
4024;BME280;2026;51.002;13.668;2023-02-12T00:16:33;100786.63;;;5.13;100.00
4024;BME280;2026;51.002;13.668;2023-02-12T00:21:36;100794.28;;;5.15;100.00
4024;BME280;2026;51.002;13.668;2023-02-12T00:26:39;100808.41;;;5.22;100.00
4024;BME280;2026;51.002;13.668;2023-02-12T00:31:43;100803.44;;;5.09;100.00
4024;BME280;2026;51.002;13.668;2023-02-12T00:36:46;100798.94;;;5.11;100.00
4024;BME280;2026;51.002;13.668;2023-02-12T00:41:49;100799.22;;;5.18;100.00
4024;BME280;2026;51.002;13.668;2023-02-12T00:46:53;100796.50;;;5.19;100.00
4024;BME280;2026;51.002;13.668;2023-02-12T00:51:57;100804.41;;;5.08;100.00
4024;BME280;2026;51.002;13.668;2023-02-12T00:57:00;100802.13;;;5.24;100.00
4024;BME280;2026;51.002;13.668;2023-02-12T01:02:05;100806.53;;;5.34;100.00
4024;BME280;2026;51.002;13.668;2023-02-12T01:07:08;100821.69;;;5.29;100.00
4024;BME280;2026;51.002;13.668;2023-02-12T01:12:10;100819.50;;;5.24;100.00
4024;BME280;2026;51.002;13.668;2023-02-12T01:17:15;100820.03;;;5.18;100.00
4024;BME280;2026;51.002;13.668;2023-02-12T01:22:18;100824.72;;;5.34;100.00
4024;BME280;2026;51.002;13.668;2023-02-12T01:27:21;100819.28;;;5.47;100.00
4024;BME280;2026;51.002;13.668;2023-02-12T01:32:25;100824.75;;;5.44;100.00
4024;BME280;2026;51.002;13.668;2023-02-12T01:37:29;100817.47;;;5.37;100.00
4024;BME280;2026;51.002;13.668;2023-02-12T01:42:33;100816.66;;;5.37;100.00
4024;BME280;2026;51.002;13.668;2023-02-12T01:47:37;100822.00;;;5.35;100.00
4024;BME280;2026;51.002;13.668;2023-02-12T01:52:43;100817.34;;;5.39;100.00
4024;BME280;2026;51.002;13.668;2023-02-12T01:57:47;100822.81;;;5.36;100.00
4024;BME280;2026;51.002;13.668;2023-02-12T02:02:56;100820.50;;;5.33;100.00
4024;BME280;2026;51.002;13.668;2023-02-12T02:08:00;100828.97;;;5.35;100.00
4024;BME280;2026;51.002;13.668;2023-02-12T02:13:03;100828.41;;;5.31;100.00
4024;BME280;2026;51.002;13.668;2023-02-12T02:18:30;100814.91;;;5.47;100.00
4024;BME280;2026;51.002;13.668;2023-02-12T02:29:30;100816.25;;;5.32;100.00
4024;BME280;2026;51.002;13.668;2023-02-12T02:34:47;100817.31;;;5.29;100.00
4024;BME280;2026;51.002;13.668;2023-02-12T02:39:54;100820.91;;;5.38;100.00
4024;BME280;2026;51.002;13.668;2023-02-12T02:45:03;100829.09;;;5.33;100.00
4024;BME280;2026;51.002;13.668;2023-02-12T02:50:12;100832.25;;;5.27;100.00
4024;BME280;2026;51.002;13.668;2023-02-12T02:55:17;100829.91;;;5.24;100.00
4024;BME280;2026;51.002;13.668;2023-02-12T03:00:24;100828.28;;;5.33;100.00
4024;BME280;2026;51.002;13.668;2023-02-12T03:05:34;100829.25;;;5.32;100.00
4024;BME280;2026;51.002;13.668;2023-02-12T03:10:42;100839.25;;;5.36;100.00
4024;BME280;2026;51.002;13.668;2023-02-12T03:15:51;100844.56;;;5.35;100.00
4024;BME280;2026;51.002;13.668;2023-02-12T03:21:01;100853.22;;;5.45;100.00
4024;BME280;2026;51.002;13.668;2023-02-12T03:26:09;100858.03;;;5.40;100.00
4024;BME280;2026;51.002;13.668;2023-02-12T03:31:22;100866.69;;;5.19;100.00
4024;BME280;2026;51.002;13.668;2023-02-12T03:36:37;100877.28;;;5.28;100.00
4024;BME280;2026;51.002;13.668;2023-02-12T03:41:45;100888.19;;;5.21;100.00
4024;BME280;2026;51.002;13.668;2023-02-12T03:46:59;100891.19;;;5.17;100.00
4024;BME280;2026;51.002;13.668;2023-02-12T03:52:06;100896.72;;;5.23;100.00
4024;BME280;2026;51.002;13.668;2023-02-12T03:57:11;100912.56;;;5.20;100.00
4024;BME280;2026;51.002;13.668;2023-02-12T04:02:17;100918.31;;;5.24;100.00
4024;BME280;2026;51.002;13.668;2023-02-12T04:07:22;100919.44;;;5.31;100.00
4024;BME280;2026;51.002;13.668;2023-02-12T04:12:33;100924.97;;;5.38;100.00
4024;BME280;2026;51.002;13.668;2023-02-12T04:17:48;100927.81;;;5.35;100.00
4024;BME280;2026;51.002;13.668;2023-02-12T04:23:05;100933.28;;;5.32;100.00
4024;BME280;2026;51.002;13.668;2023-02-12T04:28:16;100926.56;;;5.29;100.00
4024;BME280;2026;51.002;13.668;2023-02-12T04:33:25;100924.56;;;5.11;100.00
4024;BME280;2026;51.002;13.668;2023-02-12T04:38:36;100928.50;;;4.84;100.00
4024;BME280;2026;51.002;13.668;2023-02-12T04:43:40;100922.69;;;4.92;100.00
4024;BME280;2026;51.002;13.668;2023-02-12T04:48:50;100926.44;;;5.00;100.00
4024;BME280;2026;51.002;13.668;2023-02-12T04:53:55;100927.94;;;4.81;100.00
4024;BME280;2026;51.002;13.668;2023-02-12T04:58:58;100928.00;;;4.91;100.00
4024;BME280;2026;51.002;13.668;2023-02-12T05:04:01;100929.97;;;4.98;100.00
4024;BME280;2026;51.002;13.668;2023-02-12T05:09:07;100941.84;;;4.91;100.00
4024;BME280;2026;51.002;13.668;2023-02-12T05:14:10;100938.97;;;4.94;100.00
4024;BME280;2026;51.002;13.668;2023-02-12T05:19:14;100938.28;;;4.92;100.00
4024;BME280;2026;51.002;13.668;2023-02-12T05:24:18;100939.84;;;5.05;100.00
4024;BME280;2026;51.002;13.668;2023-02-12T05:29:21;100942.25;;;4.96;100.00
4024;BME280;2026;51.002;13.668;2023-02-12T05:34:24;100946.97;;;5.03;100.00
4024;BME280;2026;51.002;13.668;2023-02-12T05:39:28;100948.78;;;5.12;100.00
4024;BME280;2026;51.002;13.668;2023-02-12T05:44:31;100955.66;;;4.92;100.00
4024;BME280;2026;51.002;13.668;2023-02-12T05:49:34;100957.63;;;5.00;100.00
4024;BME280;2026;51.002;13.668;2023-02-12T05:54:38;100959.88;;;5.14;100.00
4024;BME280;2026;51.002;13.668;2023-02-12T05:59:41;100954.75;;;5.03;100.00
4024;BME280;2026;51.002;13.668;2023-02-12T06:04:44;100959.88;;;5.14;100.00
4024;BME280;2026;51.002;13.668;2023-02-12T06:09:50;100961.72;;;5.23;100.00
4024;BME280;2026;51.002;13.668;2023-02-12T06:14:53;100969.19;;;5.38;100.00
4024;BME280;2026;51.002;13.668;2023-02-12T06:19:56;100985.03;;;5.35;100.00
4024;BME280;2026;51.002;13.668;2023-02-12T06:25:00;100981.81;;;5.43;100.00
4024;BME280;2026;51.002;13.668;2023-02-12T06:30:04;100987.63;;;5.35;100.00
4024;BME280;2026;51.002;13.668;2023-02-12T06:35:07;101004.59;;;5.29;100.00
4024;BME280;2026;51.002;13.668;2023-02-12T06:40:12;100994.50;;;5.36;100.00
4024;BME280;2026;51.002;13.668;2023-02-12T06:45:15;101007.25;;;5.39;100.00
4024;BME280;2026;51.002;13.668;2023-02-12T06:50:18;101023.03;;;5.47;100.00
4024;BME280;2026;51.002;13.668;2023-02-12T06:55:23;101026.31;;;5.49;100.00
4024;BME280;2026;51.002;13.668;2023-02-12T07:00:26;101024.03;;;5.56;100.00
4024;BME280;2026;51.002;13.668;2023-02-12T07:05:29;101035.72;;;5.62;100.00
4024;BME280;2026;51.002;13.668;2023-02-12T07:10:33;101042.28;;;5.66;100.00
4024;BME280;2026;51.002;13.668;2023-02-12T07:15:38;101044.31;;;5.62;100.00
4024;BME280;2026;51.002;13.668;2023-02-12T07:20:41;101043.94;;;5.67;100.00
4024;BME280;2026;51.002;13.668;2023-02-12T07:25:53;101051.75;;;5.67;100.00
4024;BME280;2026;51.002;13.668;2023-02-12T07:30:56;101049.47;;;5.74;100.00
4024;BME280;2026;51.002;13.668;2023-02-12T07:35:59;101054.34;;;5.67;100.00
4024;BME280;2026;51.002;13.668;2023-02-12T07:41:08;101046.72;;;5.75;100.00
4024;BME280;2026;51.002;13.668;2023-02-12T07:46:14;101054.97;;;5.80;100.00
4024;BME280;2026;51.002;13.668;2023-02-12T07:51:18;101052.81;;;5.86;100.00
4024;BME280;2026;51.002;13.668;2023-02-12T07:56:24;101056.44;;;6.04;100.00
4024;BME280;2026;51.002;13.668;2023-02-12T08:01:31;101072.06;;;6.04;100.00
4024;BME280;2026;51.002;13.668;2023-02-12T08:06:37;101072.34;;;5.80;100.00
4024;BME280;2026;51.002;13.668;2023-02-12T08:11:42;101075.16;;;5.98;100.00
4024;BME280;2026;51.002;13.668;2023-02-12T08:16:46;101079.59;;;6.07;100.00
4024;BME280;2026;51.002;13.668;2023-02-12T08:21:50;101087.63;;;5.94;100.00
4024;BME280;2026;51.002;13.668;2023-02-12T08:26:55;101086.66;;;5.86;100.00
4024;BME280;2026;51.002;13.668;2023-02-12T08:32:00;101086.31;;;6.10;100.00
4024;BME280;2026;51.002;13.668;2023-02-12T08:37:04;101089.25;;;5.86;100.00
4024;BME280;2026;51.002;13.668;2023-02-12T08:42:09;101086.63;;;6.17;100.00
4024;BME280;2026;51.002;13.668;2023-02-12T08:47:12;101093.75;;;5.84;100.00
4024;BME280;2026;51.002;13.668;2023-02-12T08:52:15;101094.81;;;6.02;100.00
4024;BME280;2026;51.002;13.668;2023-02-12T08:57:21;101107.31;;;5.87;100.00
4024;BME280;2026;51.002;13.668;2023-02-12T09:02:24;101111.97;;;5.84;100.00
4024;BME280;2026;51.002;13.668;2023-02-12T09:07:27;101119.75;;;6.05;100.00
4024;BME280;2026;51.002;13.668;2023-02-12T09:12:31;101127.41;;;5.75;100.00
4024;BME280;2026;51.002;13.668;2023-02-12T09:17:34;101127.06;;;5.90;100.00
4024;BME280;2026;51.002;13.668;2023-02-12T09:22:37;101127.47;;;5.85;100.00
4024;BME280;2026;51.002;13.668;2023-02-12T09:27:41;101132.59;;;5.75;100.00
4024;BME280;2026;51.002;13.668;2023-02-12T09:32:44;101135.03;;;5.67;100.00
4024;BME280;2026;51.002;13.668;2023-02-12T09:37:47;101143.53;;;5.90;100.00
4024;BME280;2026;51.002;13.668;2023-02-12T09:43:08;101151.75;;;5.96;100.00
4024;BME280;2026;51.002;13.668;2023-02-12T09:48:31;101148.09;;;6.29;100.00
4024;BME280;2026;51.002;13.668;2023-02-12T09:53:40;101156.50;;;6.43;100.00
4024;BME280;2026;51.002;13.668;2023-02-12T09:58:49;101167.69;;;6.65;100.00
4024;BME280;2026;51.002;13.668;2023-02-12T10:03:54;101155.47;;;6.65;100.00
4024;BME280;2026;51.002;13.668;2023-02-12T10:09:09;101162.47;;;6.65;100.00
4024;BME280;2026;51.002;13.668;2023-02-12T10:14:29;101161.53;;;6.85;100.00
4024;BME280;2026;51.002;13.668;2023-02-12T10:20:01;101166.69;;;7.16;100.00
4024;BME280;2026;51.002;13.668;2023-02-12T10:25:14;101167.53;;;7.27;98.84
4024;BME280;2026;51.002;13.668;2023-02-12T10:30:23;101163.69;;;7.51;98.73
4024;BME280;2026;51.002;13.668;2023-02-12T10:35:28;101159.25;;;7.71;98.71
4024;BME280;2026;51.002;13.668;2023-02-12T10:40:33;101156.50;;;7.72;96.28
4024;BME280;2026;51.002;13.668;2023-02-12T10:45:42;101162.53;;;7.83;95.81
4024;BME280;2026;51.002;13.668;2023-02-12T10:51:01;101163.38;;;7.74;95.13
4024;BME280;2026;51.002;13.668;2023-02-12T10:56:16;101165.56;;;7.68;95.54
4024;BME280;2026;51.002;13.668;2023-02-12T11:01:24;101161.13;;;7.98;94.54
4024;BME280;2026;51.002;13.668;2023-02-12T11:06:30;101150.94;;;7.95;93.40
4024;BME280;2026;51.002;13.668;2023-02-12T11:11:37;101150.22;;;8.13;92.57
4024;BME280;2026;51.002;13.668;2023-02-12T11:16:45;101147.41;;;7.77;93.59
4024;BME280;2026;51.002;13.668;2023-02-12T11:22:05;101145.13;;;8.02;94.20
4024;BME280;2026;51.002;13.668;2023-02-12T11:27:21;101148.94;;;8.17;91.31
4024;BME280;2026;51.002;13.668;2023-02-12T11:32:26;101138.41;;;8.37;90.70
4024;BME280;2026;51.002;13.668;2023-02-12T11:37:32;101141.69;;;8.39;90.96
4024;BME280;2026;51.002;13.668;2023-02-12T11:42:37;101141.94;;;7.70;90.55
4024;BME280;2026;51.002;13.668;2023-02-12T11:47:43;101146.22;;;7.61;92.01
4024;BME280;2026;51.002;13.668;2023-02-12T11:52:48;101144.69;;;7.68;91.16
4024;BME280;2026;51.002;13.668;2023-02-12T11:58:00;101135.34;;;7.56;91.89
4024;BME280;2026;51.002;13.668;2023-02-12T12:03:11;101144.06;;;7.27;92.15
4024;BME280;2026;51.002;13.668;2023-02-12T12:08:22;101138.00;;;7.46;91.86
4024;BME280;2026;51.002;13.668;2023-02-12T12:13:30;101138.00;;;7.26;93.58
4024;BME280;2026;51.002;13.668;2023-02-12T12:18:42;101138.38;;;7.71;92.41
4024;BME280;2026;51.002;13.668;2023-02-12T12:24:09;101148.47;;;7.94;92.16
4024;BME280;2026;51.002;13.668;2023-02-12T12:29:17;101133.59;;;8.04;91.08
4024;BME280;2026;51.002;13.668;2023-02-12T12:34:26;101135.00;;;7.98;91.47
4024;BME280;2026;51.002;13.668;2023-02-12T12:39:35;101129.44;;;7.74;91.52
4024;BME280;2026;51.002;13.668;2023-02-12T12:44:49;101123.44;;;7.34;94.57
4024;BME280;2026;51.002;13.668;2023-02-12T12:49:59;101125.19;;;7.72;94.30
4024;BME280;2026;51.002;13.668;2023-02-12T12:55:36;101122.34;;;8.04;93.21
4024;BME280;2026;51.002;13.668;2023-02-12T13:00:59;101117.09;;;8.04;91.89
4024;BME280;2026;51.002;13.668;2023-02-12T13:06:37;101116.75;;;7.79;92.75
4024;BME280;2026;51.002;13.668;2023-02-12T13:11:50;101119.22;;;7.80;93.70
4024;BME280;2026;51.002;13.668;2023-02-12T13:17:03;101117.28;;;7.92;92.72
4024;BME280;2026;51.002;13.668;2023-02-12T13:22:16;101121.84;;;7.70;94.93
4024;BME280;2026;51.002;13.668;2023-02-12T13:27:25;101118.63;;;7.39;96.62
4024;BME280;2026;51.002;13.668;2023-02-12T13:32:32;101117.53;;;7.41;97.67
4024;BME280;2026;51.002;13.668;2023-02-12T13:37:41;101116.38;;;7.74;97.02
4024;BME280;2026;51.002;13.668;2023-02-12T13:42:49;101102.59;;;7.81;97.20
4024;BME280;2026;51.002;13.668;2023-02-12T13:48:15;101112.50;;;7.78;97.18
4024;BME280;2026;51.002;13.668;2023-02-12T13:53:28;101110.41;;;7.91;97.34
4024;BME280;2026;51.002;13.668;2023-02-12T13:58:39;101109.44;;;7.92;97.21
4024;BME280;2026;51.002;13.668;2023-02-12T14:03:42;101114.41;;;7.85;96.96
4024;BME280;2026;51.002;13.668;2023-02-12T14:08:50;101113.56;;;7.85;97.32
4024;BME280;2026;51.002;13.668;2023-02-12T14:13:55;101123.47;;;7.91;96.87
4024;BME280;2026;51.002;13.668;2023-02-12T14:24:51;101123.03;;;7.96;96.41
4024;BME280;2026;51.002;13.668;2023-02-12T14:30:26;101120.09;;;7.71;96.62
4024;BME280;2026;51.002;13.668;2023-02-12T14:35:31;101115.53;;;7.73;96.78
4024;BME280;2026;51.002;13.668;2023-02-12T14:40:41;101118.59;;;7.58;97.17
4024;BME280;2026;51.002;13.668;2023-02-12T14:45:45;101112.47;;;7.88;96.06
4024;BME280;2026;51.002;13.668;2023-02-12T14:50:48;101126.81;;;7.74;96.05
4024;BME280;2026;51.002;13.668;2023-02-12T14:55:54;101129.69;;;7.80;96.38
4024;BME280;2026;51.002;13.668;2023-02-12T15:01:00;101131.44;;;7.80;96.25
4024;BME280;2026;51.002;13.668;2023-02-12T15:06:10;101128.59;;;7.63;95.72
4024;BME280;2026;51.002;13.668;2023-02-12T15:11:32;101124.63;;;7.69;95.33
4024;BME280;2026;51.002;13.668;2023-02-12T15:16:45;101125.78;;;7.27;96.25
4024;BME280;2026;51.002;13.668;2023-02-12T15:21:50;101127.97;;;7.22;97.31
4024;BME280;2026;51.002;13.668;2023-02-12T15:26:58;101124.41;;;7.13;99.36
4024;BME280;2026;51.002;13.668;2023-02-12T15:32:04;101127.56;;;7.26;98.75
4024;BME280;2026;51.002;13.668;2023-02-12T15:37:14;101130.97;;;7.47;97.72
4024;BME280;2026;51.002;13.668;2023-02-12T15:42:26;101125.22;;;7.03;100.00
4024;BME280;2026;51.002;13.668;2023-02-12T15:47:29;101134.00;;;7.32;99.33
4024;BME280;2026;51.002;13.668;2023-02-12T15:52:36;101138.13;;;7.44;97.40
4024;BME280;2026;51.002;13.668;2023-02-12T15:57:43;101127.44;;;7.38;98.00
4024;BME280;2026;51.002;13.668;2023-02-12T16:02:50;101130.84;;;7.38;98.55
4024;BME280;2026;51.002;13.668;2023-02-12T16:07:54;101125.09;;;7.15;97.88
4024;BME280;2026;51.002;13.668;2023-02-12T16:12:59;101135.81;;;7.22;97.97
4024;BME280;2026;51.002;13.668;2023-02-12T16:18:03;101142.09;;;7.09;98.36
4024;BME280;2026;51.002;13.668;2023-02-12T16:23:07;101136.09;;;7.19;97.95
4024;BME280;2026;51.002;13.668;2023-02-12T16:28:16;101142.00;;;7.21;97.73
4024;BME280;2026;51.002;13.668;2023-02-12T16:33:33;101150.22;;;7.06;97.99
4024;BME280;2026;51.002;13.668;2023-02-12T16:38:40;101149.13;;;7.09;98.31
4024;BME280;2026;51.002;13.668;2023-02-12T16:43:45;101158.88;;;7.07;97.29
4024;BME280;2026;51.002;13.668;2023-02-12T16:48:50;101163.41;;;7.14;97.04
4024;BME280;2026;51.002;13.668;2023-02-12T16:53:55;101176.44;;;7.14;97.16
4024;BME280;2026;51.002;13.668;2023-02-12T16:59:00;101166.44;;;7.20;96.60
4024;BME280;2026;51.002;13.668;2023-02-12T17:04:06;101169.94;;;6.99;97.04
4024;BME280;2026;51.002;13.668;2023-02-12T17:09:09;101176.81;;;7.00;96.67
4024;BME280;2026;51.002;13.668;2023-02-12T17:14:16;101176.34;;;6.75;97.75
4024;BME280;2026;51.002;13.668;2023-02-12T17:19:19;101185.31;;;6.92;97.09
4024;BME280;2026;51.002;13.668;2023-02-12T17:24:25;101182.28;;;6.87;97.43
4024;BME280;2026;51.002;13.668;2023-02-12T17:29:30;101183.38;;;6.84;97.81
4024;BME280;2026;51.002;13.668;2023-02-12T17:34:33;101185.56;;;6.79;97.12
4024;BME280;2026;51.002;13.668;2023-02-12T17:39:49;101199.13;;;6.73;98.40
4024;BME280;2026;51.002;13.668;2023-02-12T17:44:53;101192.56;;;6.79;97.84
4024;BME280;2026;51.002;13.668;2023-02-12T17:49:56;101206.44;;;6.79;97.64
4024;BME280;2026;51.002;13.668;2023-02-12T17:55:01;101202.97;;;6.79;97.98
4024;BME280;2026;51.002;13.668;2023-02-12T18:00:07;101203.09;;;6.77;98.10
4024;BME280;2026;51.002;13.668;2023-02-12T18:05:11;101218.13;;;6.54;99.39
4024;BME280;2026;51.002;13.668;2023-02-12T18:10:14;101205.00;;;6.65;98.56
4024;BME280;2026;51.002;13.668;2023-02-12T18:15:19;101210.63;;;6.70;99.07
4024;BME280;2026;51.002;13.668;2023-02-12T18:20:22;101217.56;;;6.50;99.02
4024;BME280;2026;51.002;13.668;2023-02-12T18:25:25;101216.91;;;6.58;99.28
4024;BME280;2026;51.002;13.668;2023-02-12T18:30:30;101218.84;;;6.66;98.42
4024;BME280;2026;51.002;13.668;2023-02-12T18:35:33;101224.13;;;6.75;98.59
4024;BME280;2026;51.002;13.668;2023-02-12T18:40:38;101211.63;;;6.79;97.62
4024;BME280;2026;51.002;13.668;2023-02-12T18:45:43;101212.84;;;6.75;97.51
4024;BME280;2026;51.002;13.668;2023-02-12T18:50:46;101216.94;;;6.68;98.02
4024;BME280;2026;51.002;13.668;2023-02-12T18:55:52;101205.75;;;6.46;99.28
4024;BME280;2026;51.002;13.668;2023-02-12T19:00:56;101214.53;;;5.92;100.00
4024;BME280;2026;51.002;13.668;2023-02-12T19:06:02;101208.34;;;6.15;100.00
4024;BME280;2026;51.002;13.668;2023-02-12T19:11:06;101202.97;;;6.38;100.00
4024;BME280;2026;51.002;13.668;2023-02-12T19:16:12;101197.69;;;6.18;100.00
4024;BME280;2026;51.002;13.668;2023-02-12T19:21:16;101189.25;;;6.35;100.00
4024;BME280;2026;51.002;13.668;2023-02-12T19:26:19;101191.34;;;6.42;100.00
4024;BME280;2026;51.002;13.668;2023-02-12T19:31:25;101187.94;;;6.51;100.00
4024;BME280;2026;51.002;13.668;2023-02-12T19:36:30;101189.28;;;6.45;100.00
4024;BME280;2026;51.002;13.668;2023-02-12T19:41:34;101176.91;;;6.38;100.00
4024;BME280;2026;51.002;13.668;2023-02-12T19:46:43;101190.78;;;6.38;100.00
4024;BME280;2026;51.002;13.668;2023-02-12T19:51:46;101185.28;;;6.31;100.00
4024;BME280;2026;51.002;13.668;2023-02-12T19:56:50;101182.44;;;6.44;100.00
4024;BME280;2026;51.002;13.668;2023-02-12T20:01:54;101181.59;;;6.44;100.00
4024;BME280;2026;51.002;13.668;2023-02-12T20:06:58;101179.69;;;6.46;100.00
4024;BME280;2026;51.002;13.668;2023-02-12T20:12:01;101172.69;;;6.46;100.00
4024;BME280;2026;51.002;13.668;2023-02-12T20:17:05;101170.53;;;6.52;100.00
4024;BME280;2026;51.002;13.668;2023-02-12T20:22:08;101173.38;;;6.48;100.00
4024;BME280;2026;51.002;13.668;2023-02-12T20:27:11;101171.69;;;6.38;100.00
4024;BME280;2026;51.002;13.668;2023-02-12T20:32:15;101170.31;;;6.33;100.00
4024;BME280;2026;51.002;13.668;2023-02-12T20:37:18;101179.97;;;5.90;100.00
4024;BME280;2026;51.002;13.668;2023-02-12T20:42:21;101175.19;;;6.17;100.00
4024;BME280;2026;51.002;13.668;2023-02-12T20:47:25;101191.31;;;5.68;100.00
4024;BME280;2026;51.002;13.668;2023-02-12T20:52:29;101194.84;;;6.00;100.00
4024;BME280;2026;51.002;13.668;2023-02-12T20:57:32;101191.16;;;6.02;100.00
4024;BME280;2026;51.002;13.668;2023-02-12T21:02:37;101185.25;;;6.00;100.00
4024;BME280;2026;51.002;13.668;2023-02-12T21:07:40;101182.94;;;6.07;100.00
4024;BME280;2026;51.002;13.668;2023-02-12T21:12:43;101176.47;;;6.01;100.00
4024;BME280;2026;51.002;13.668;2023-02-12T21:17:47;101182.94;;;6.07;100.00
4024;BME280;2026;51.002;13.668;2023-02-12T21:22:50;101181.31;;;6.06;100.00
4024;BME280;2026;51.002;13.668;2023-02-12T21:27:53;101180.41;;;5.96;100.00
4024;BME280;2026;51.002;13.668;2023-02-12T21:32:57;101177.75;;;5.64;100.00
4024;BME280;2026;51.002;13.668;2023-02-12T21:38:00;101177.50;;;5.89;100.00
4024;BME280;2026;51.002;13.668;2023-02-12T21:43:03;101174.44;;;5.84;100.00
4024;BME280;2026;51.002;13.668;2023-02-12T21:48:08;101182.84;;;5.66;100.00
4024;BME280;2026;51.002;13.668;2023-02-12T21:53:10;101181.69;;;5.59;100.00
4024;BME280;2026;51.002;13.668;2023-02-12T21:58:14;101185.09;;;5.38;100.00
4024;BME280;2026;51.002;13.668;2023-02-12T22:03:18;101180.47;;;5.09;100.00
4024;BME280;2026;51.002;13.668;2023-02-12T22:08:22;101179.97;;;5.15;100.00
4024;BME280;2026;51.002;13.668;2023-02-12T22:13:25;101179.66;;;5.30;100.00
4024;BME280;2026;51.002;13.668;2023-02-12T22:18:29;101173.47;;;5.42;100.00
4024;BME280;2026;51.002;13.668;2023-02-12T22:23:33;101181.56;;;5.39;100.00
4024;BME280;2026;51.002;13.668;2023-02-12T22:28:38;101183.75;;;5.22;100.00
4024;BME280;2026;51.002;13.668;2023-02-12T22:33:43;101196.69;;;4.90;100.00
4024;BME280;2026;51.002;13.668;2023-02-12T22:38:46;101201.28;;;4.97;100.00
4024;BME280;2026;51.002;13.668;2023-02-12T22:43:50;101190.69;;;5.22;100.00
4024;BME280;2026;51.002;13.668;2023-02-12T22:48:54;101188.72;;;5.47;100.00
4024;BME280;2026;51.002;13.668;2023-02-12T22:53:58;101186.38;;;5.44;100.00
4024;BME280;2026;51.002;13.668;2023-02-12T22:59:01;101191.78;;;5.52;100.00
4024;BME280;2026;51.002;13.668;2023-02-12T23:04:05;101189.94;;;5.64;100.00
4024;BME280;2026;51.002;13.668;2023-02-12T23:09:11;101179.03;;;5.70;100.00
4024;BME280;2026;51.002;13.668;2023-02-12T23:14:15;101176.25;;;5.83;100.00
4024;BME280;2026;51.002;13.668;2023-02-12T23:19:19;101180.41;;;5.74;100.00
4024;BME280;2026;51.002;13.668;2023-02-12T23:24:22;101168.84;;;5.88;100.00
4024;BME280;2026;51.002;13.668;2023-02-12T23:29:26;101170.25;;;5.92;100.00
4024;BME280;2026;51.002;13.668;2023-02-12T23:34:30;101174.44;;;5.84;100.00
4024;BME280;2026;51.002;13.668;2023-02-12T23:39:33;101174.03;;;5.78;100.00
4024;BME280;2026;51.002;13.668;2023-02-12T23:44:36;101174.72;;;5.80;100.00
4024;BME280;2026;51.002;13.668;2023-02-12T23:49:41;101168.50;;;5.93;100.00
4024;BME280;2026;51.002;13.668;2023-02-12T23:54:43;101171.22;;;5.91;100.00
4024;BME280;2026;51.002;13.668;2023-02-12T23:59:46;101163.78;;;5.87;100.00
